createdAt,value
2023-02-05T00:02:12.106Z,-1.98
2023-02-05T00:04:39.214Z,-1.98
2023-02-05T00:07:06.226Z,-1.96
2023-02-05T00:09:42.596Z,-1.95
2023-02-05T00:12:09.851Z,-1.91
2023-02-05T00:14:36.800Z,-1.92
2023-02-05T00:17:32.074Z,-1.85
2023-02-05T00:20:04.768Z,-1.92
2023-02-05T00:22:33.426Z,-1.92
2023-02-05T00:28:39.508Z,-1.99
2023-02-05T00:43:19.428Z,-2.12
2023-02-05T00:45:47.030Z,-2.11
2023-02-05T00:48:46.976Z,-2.12
2023-02-05T00:52:26.531Z,-2.18
2023-02-05T00:55:52.881Z,-2.17
2023-02-05T02:03:18.927Z,-2.19
2023-02-05T02:05:47.061Z,-2.19
2023-02-05T02:08:14.240Z,-2.19
2023-02-05T02:10:42.694Z,-2.22
2023-02-05T02:13:11.044Z,-2.27
2023-02-05T02:15:40.094Z,-2.30
2023-02-05T02:18:26.290Z,-2.29
2023-02-05T02:21:32.000Z,-2.28
2023-02-05T02:24:18.309Z,-2.31
2023-02-05T02:27:30.225Z,-2.28
2023-02-05T02:30:27.250Z,-2.31
2023-02-05T02:33:22.400Z,-2.34
2023-02-05T02:36:04.047Z,-2.38
2023-02-05T02:38:40.234Z,-2.39
2023-02-05T02:41:27.563Z,-2.35
2023-02-05T02:43:59.377Z,-2.38
2023-02-05T02:46:46.706Z,-2.42
2023-02-05T02:49:31.418Z,-2.45
2023-02-05T02:52:00.865Z,-2.45
2023-02-05T02:54:28.148Z,-2.44
2023-02-05T02:56:57.227Z,-2.43
2023-02-05T02:59:28.442Z,-2.45
2023-02-05T03:01:58.780Z,-2.47
2023-02-05T03:04:33.592Z,-2.50
2023-02-05T03:07:09.049Z,-2.51
2023-02-05T03:10:03.103Z,-2.53
2023-02-05T03:12:33.415Z,-2.59
2023-02-05T03:15:01.038Z,-2.65
2023-02-05T03:17:31.238Z,-2.66
2023-02-05T03:20:04.432Z,-2.60
2023-02-05T03:22:31.441Z,-2.61
2023-02-05T03:24:58.495Z,-2.60
2023-02-05T03:27:25.779Z,-2.58
2023-02-05T03:29:58.920Z,-2.55
2023-02-05T03:32:42.197Z,-2.59
2023-02-05T03:35:09.325Z,-2.62
2023-02-05T03:38:08.965Z,-2.59
2023-02-05T03:40:40.257Z,-2.65
2023-02-05T03:43:13.184Z,-2.67
2023-02-05T03:45:50.744Z,-2.66
2023-02-05T03:48:29.316Z,-2.68
2023-02-05T03:51:05.237Z,-2.71
2023-02-05T03:53:51.502Z,-2.71
2023-02-05T03:56:20.478Z,-2.74
2023-02-05T03:58:50.346Z,-2.81
2023-02-05T04:01:19.110Z,-2.86
2023-02-05T04:03:47.608Z,-2.82
2023-02-05T04:06:16.680Z,-2.78
2023-02-05T04:08:45.765Z,-2.77
2023-02-05T04:11:13.049Z,-2.75
2023-02-05T04:13:41.425Z,-2.72
2023-02-05T04:16:13.334Z,-2.71
2023-02-05T04:18:45.537Z,-2.72
2023-02-05T04:21:12.821Z,-2.84
2023-02-05T04:23:42.026Z,-2.84
2023-02-05T04:26:09.548Z,-2.90
2023-02-05T04:28:43.968Z,-2.96
2023-02-05T04:31:12.767Z,-2.92
2023-02-05T04:33:42.877Z,-2.85
2023-02-05T04:36:12.319Z,-2.83
2023-02-05T04:38:39.789Z,-2.82
2023-02-05T04:41:06.793Z,-2.82
2023-02-05T04:43:34.158Z,-2.76
2023-02-05T04:46:11.124Z,-2.76
2023-02-05T04:48:38.915Z,-2.78
2023-02-05T04:51:12.789Z,-2.76
2023-02-05T04:53:43.551Z,-2.76
2023-02-05T04:56:14.508Z,-2.74
2023-02-05T04:58:42.196Z,-2.70
2023-02-05T05:01:19.563Z,-2.69
2023-02-05T05:03:46.729Z,-2.70
2023-02-05T05:06:13.986Z,-2.71
2023-02-05T05:08:41.591Z,-2.71
2023-02-05T05:11:14.440Z,-2.71
2023-02-05T05:13:42.541Z,-2.72
2023-02-05T05:16:10.976Z,-2.71
2023-02-05T05:18:39.181Z,-2.66
2023-02-05T05:21:06.922Z,-2.67
2023-02-05T05:23:34.604Z,-2.66
2023-02-05T05:26:05.054Z,-2.66
2023-02-05T05:28:38.137Z,-2.74
2023-02-05T05:31:20.257Z,-2.80
2023-02-05T05:33:47.830Z,-2.87
2023-02-05T05:36:15.603Z,-2.87
2023-02-05T05:38:43.033Z,-2.74
2023-02-05T05:41:37.211Z,-2.80
2023-02-05T05:47:14.178Z,-2.88
2023-02-05T05:49:41.337Z,-2.82
2023-02-05T05:52:10.089Z,-2.89
2023-02-05T05:54:40.181Z,-2.92
2023-02-05T05:57:08.167Z,-2.98
2023-02-05T05:59:35.250Z,-3.06
2023-02-05T06:02:05.285Z,-3.02
2023-02-05T06:04:33.465Z,-2.97
2023-02-05T06:07:02.371Z,-3.02
2023-02-05T06:09:29.704Z,-3.02
2023-02-05T06:11:57.875Z,-2.98
2023-02-05T06:14:27.418Z,-2.98
2023-02-05T06:16:56.185Z,-2.95
2023-02-05T06:19:24.648Z,-2.94
2023-02-05T06:21:53.920Z,-2.94
2023-02-05T06:24:20.939Z,-2.87
2023-02-05T06:26:47.854Z,-2.79
2023-02-05T06:29:14.954Z,-2.80
2023-02-05T06:31:42.260Z,-2.75
2023-02-05T06:34:09.235Z,-2.67
2023-02-05T06:36:36.145Z,-2.63
2023-02-05T06:39:03.248Z,-2.59
2023-02-05T06:41:30.927Z,-2.51
2023-02-05T06:43:58.031Z,-2.48
2023-02-05T06:46:28.221Z,-2.45
2023-02-05T06:48:55.872Z,-2.40
2023-02-05T06:51:22.837Z,-2.42
2023-02-05T06:53:49.914Z,-2.40
2023-02-05T06:56:16.944Z,-2.38
2023-02-05T06:58:47.034Z,-2.32
2023-02-05T07:01:14.535Z,-2.27
2023-02-05T07:03:41.586Z,-2.20
2023-02-05T07:06:08.851Z,-2.20
2023-02-05T07:08:38.473Z,-2.15
2023-02-05T07:11:05.531Z,-2.10
2023-02-05T07:13:32.536Z,-2.14
2023-02-05T07:16:04.383Z,-2.09
2023-02-05T07:18:57.882Z,-2.01
2023-02-05T07:21:25.352Z,-2.09
2023-02-05T07:23:53.473Z,-2.08
2023-02-05T07:26:20.746Z,-1.90
2023-02-05T07:28:47.733Z,-2.07
2023-02-05T07:31:18.639Z,-2.13
2023-02-05T07:33:46.829Z,-2.16
2023-02-05T07:36:16.686Z,-2.19
2023-02-05T07:38:53.225Z,-2.13
2023-02-05T07:41:20.603Z,-2.33
2023-02-05T07:43:51.612Z,-2.43
2023-02-05T07:46:19.243Z,-2.46
2023-02-05T07:48:46.783Z,-2.44
2023-02-05T07:51:26.772Z,-2.42
2023-02-05T07:53:54.201Z,-2.40
2023-02-05T07:56:23.834Z,-2.43
2023-02-05T07:58:50.750Z,-2.30
2023-02-05T08:01:23.833Z,-2.37
2023-02-05T08:03:50.875Z,-2.34
2023-02-05T08:06:17.879Z,-2.40
2023-02-05T08:08:45.587Z,-2.41
2023-02-05T08:11:21.738Z,-2.41
2023-02-05T08:13:49.812Z,-2.42
2023-02-05T08:16:17.091Z,-2.22
2023-02-05T08:18:50.573Z,-2.11
2023-02-05T08:21:19.369Z,-2.09
2023-02-05T08:23:48.459Z,-2.00
2023-02-05T08:26:15.936Z,-2.02
2023-02-05T08:28:43.420Z,-2.07
2023-02-05T08:31:22.189Z,-2.09
2023-02-05T08:33:54.976Z,-2.06
2023-02-05T08:36:22.303Z,-2.02
2023-02-05T08:38:49.893Z,-2.12
2023-02-05T08:41:29.065Z,-2.09
2023-02-05T08:44:02.218Z,-2.13
2023-02-05T08:46:50.091Z,-2.04
2023-02-05T08:49:26.573Z,-2.20
2023-02-05T08:57:30.254Z,-1.90
2023-02-05T08:59:58.048Z,-1.95
2023-02-05T09:02:28.097Z,-1.86
2023-02-05T09:05:09.674Z,-1.67
2023-02-05T09:07:57.683Z,-1.73
2023-02-05T09:10:46.606Z,-1.53
2023-02-05T09:13:26.700Z,-1.32
2023-02-05T09:15:54.192Z,-1.19
2023-02-05T09:19:16.006Z,-1.12
2023-02-05T09:22:00.204Z,-1.25
2023-02-05T09:28:44.780Z,-1.22
2023-02-05T09:40:25.484Z,-0.68
2023-02-05T09:43:06.516Z,-0.14
2023-02-05T09:45:44.927Z,0.70
2023-02-05T09:51:32.962Z,2.57
2023-02-05T09:54:05.592Z,2.29
2023-02-05T09:56:45.943Z,2.02
2023-02-05T10:06:33.308Z,0.96
2023-02-05T10:09:45.246Z,0.34
2023-02-05T10:12:44.434Z,-0.14
2023-02-05T10:29:04.518Z,0.07
2023-02-05T10:31:52.167Z,0.22
2023-02-05T10:35:03.063Z,0.69
2023-02-05T10:38:04.730Z,0.82
2023-02-05T10:40:42.295Z,1.14
2023-02-05T10:43:29.369Z,0.90
2023-02-05T10:46:30.608Z,1.36
2023-02-05T10:49:04.574Z,1.11
2023-02-05T10:52:29.852Z,0.71
2023-02-05T10:59:00.987Z,1.81
2023-02-05T11:01:34.199Z,1.86
2023-02-05T11:04:05.109Z,3.11
2023-02-05T11:06:56.738Z,4.65
2023-02-05T11:09:26.928Z,4.93
2023-02-05T11:11:59.063Z,4.92
2023-02-05T11:14:35.948Z,6.47
2023-02-05T11:17:08.493Z,5.35
2023-02-05T11:19:40.535Z,4.74
2023-02-05T11:22:36.614Z,5.79
2023-02-05T11:25:31.648Z,6.77
2023-02-05T11:28:02.687Z,4.91
2023-02-05T11:30:53.937Z,3.15
2023-02-05T11:33:27.931Z,2.06
2023-02-05T11:36:09.688Z,2.02
2023-02-05T11:39:04.803Z,1.86
2023-02-05T11:41:48.376Z,2.00
2023-02-05T11:44:30.170Z,2.97
2023-02-05T11:47:00.688Z,3.44
2023-02-05T11:49:37.516Z,2.75
2023-02-05T11:52:40.673Z,1.93
2023-02-05T12:01:46.388Z,0.47
2023-02-05T12:04:23.419Z,0.55
2023-02-05T12:07:59.464Z,0.38
2023-02-05T12:47:35.890Z,-1.16
2023-02-05T12:53:10.835Z,-1.10
2023-02-05T12:55:46.849Z,-1.17
2023-02-05T12:58:19.648Z,-1.18
2023-02-05T13:00:50.969Z,-1.24
2023-02-05T13:06:42.967Z,-1.31
2023-02-05T13:09:19.812Z,-1.40
2023-02-05T13:11:48.202Z,-1.63
2023-02-05T13:14:20.758Z,-1.67
2023-02-05T13:16:54.225Z,-1.68
2023-02-05T13:19:23.989Z,-1.77
2023-02-05T13:22:11.608Z,-1.98
2023-02-05T13:28:25.369Z,-2.02
2023-02-05T13:30:54.352Z,-1.98
2023-02-05T13:33:21.693Z,-1.98
2023-02-05T13:35:52.732Z,-2.01
2023-02-05T13:38:26.115Z,-2.07
2023-02-05T13:41:17.124Z,-2.17
2023-02-05T13:44:02.474Z,-2.24
2023-02-05T13:46:47.704Z,-2.33
2023-02-05T13:49:29.488Z,-2.28
2023-02-05T13:52:15.605Z,-2.34
2023-02-05T13:58:25.479Z,-2.20
2023-02-05T14:00:58.166Z,-2.30
2023-02-05T14:03:27.436Z,-2.31
2023-02-05T14:05:54.440Z,-2.31
2023-02-05T14:08:28.707Z,-2.46
2023-02-05T14:10:59.638Z,-2.42
2023-02-05T14:13:37.440Z,-2.37
2023-02-05T14:16:23.638Z,-2.34
2023-02-05T14:22:44.076Z,-2.43
2023-02-05T14:25:41.499Z,-2.44
2023-02-05T14:34:21.994Z,-2.51
2023-02-05T14:37:14.864Z,-2.51
2023-02-05T14:45:16.317Z,-2.46
2023-02-05T14:53:24.079Z,-2.50
2023-02-05T14:55:55.695Z,-2.47
2023-02-05T14:58:34.272Z,-2.54
2023-02-05T15:01:20.068Z,-2.62
2023-02-05T15:03:51.808Z,-2.59
2023-02-05T15:06:25.118Z,-2.59
2023-02-05T15:09:04.956Z,-2.63
2023-02-05T15:11:39.786Z,-2.68
2023-02-05T15:14:22.371Z,-2.71
2023-02-05T15:19:56.656Z,-2.60
2023-02-05T15:22:42.570Z,-2.58
2023-02-05T15:25:11.119Z,-2.55
2023-02-05T15:27:50.507Z,-2.55
2023-02-05T15:30:19.509Z,-2.70
2023-02-05T15:32:55.102Z,-2.72
2023-02-05T15:35:23.303Z,-2.71
2023-02-05T15:37:51.100Z,-2.67
2023-02-05T15:40:29.017Z,-2.71
2023-02-05T15:49:15.680Z,-2.84
2023-02-05T15:51:42.585Z,-2.80
2023-02-05T15:54:09.496Z,-2.77
2023-02-05T15:56:37.401Z,-2.79
2023-02-05T15:59:14.273Z,-2.78
2023-02-05T16:01:46.401Z,-2.79
2023-02-05T16:04:25.207Z,-2.86
2023-02-05T16:06:52.307Z,-2.96
2023-02-05T16:09:20.146Z,-2.98
2023-02-05T16:11:48.610Z,-2.94
2023-02-05T16:14:16.676Z,-2.90
2023-02-05T16:16:49.760Z,-2.88
2023-02-05T16:19:24.067Z,-2.93
2023-02-05T16:21:54.023Z,-2.98
2023-02-05T16:24:27.030Z,-2.95
2023-02-05T16:27:00.089Z,-2.98
2023-02-05T16:29:52.345Z,-3.01
2023-02-05T16:32:31.766Z,-3.07
2023-02-05T16:35:11.607Z,-3.11
2023-02-05T16:37:38.500Z,-3.13
2023-02-05T16:40:11.516Z,-3.10
2023-02-05T16:42:42.780Z,-3.09
2023-02-05T16:45:29.302Z,-3.08
2023-02-05T16:48:14.693Z,-3.08
2023-02-05T16:50:43.507Z,-3.11
2023-02-05T16:53:26.781Z,-3.13
2023-02-05T16:56:02.872Z,-3.11
2023-02-05T16:58:33.974Z,-3.09
2023-02-05T17:01:01.702Z,-3.11
2023-02-05T17:03:29.527Z,-3.12
2023-02-05T17:05:57.851Z,-3.20
2023-02-05T17:08:30.927Z,-3.23
2023-02-05T17:10:59.280Z,-3.24
2023-02-05T17:13:29.892Z,-3.23
2023-02-05T17:15:56.919Z,-3.21
2023-02-05T17:18:30.793Z,-3.22
2023-02-05T17:21:17.845Z,-3.27
2023-02-05T17:23:49.330Z,-3.31
2023-02-05T17:26:16.187Z,-3.33
2023-02-05T17:28:45.409Z,-3.37
2023-02-05T17:31:13.811Z,-3.37
2023-02-05T17:33:40.560Z,-3.39
2023-02-05T17:36:08.953Z,-3.40
2023-02-05T17:38:35.930Z,-3.38
2023-02-05T17:41:21.406Z,-3.36
2023-02-05T17:43:48.825Z,-3.35
2023-02-05T17:46:41.175Z,-3.37
2023-02-05T17:49:16.105Z,-3.38
2023-02-05T17:51:43.995Z,-3.37
2023-02-05T17:54:15.002Z,-3.35
2023-02-05T17:56:42.247Z,-3.39
2023-02-05T17:59:36.033Z,-3.42
2023-02-05T18:02:05.095Z,-3.43
2023-02-05T18:04:32.021Z,-3.43
2023-02-05T18:06:58.890Z,-3.41
2023-02-05T18:09:25.756Z,-3.40
2023-02-05T18:11:57.010Z,-3.38
2023-02-05T18:14:27.139Z,-3.40
2023-02-05T18:16:53.986Z,-3.46
2023-02-05T18:19:20.996Z,-3.47
2023-02-05T18:21:48.886Z,-3.47
2023-02-05T18:24:15.722Z,-3.47
2023-02-05T18:26:42.585Z,-3.47
2023-02-05T18:29:10.769Z,-3.49
2023-02-05T18:31:38.454Z,-3.49
2023-02-05T18:34:06.793Z,-3.47
2023-02-05T18:36:34.508Z,-3.47
2023-02-05T18:39:02.693Z,-3.48
2023-02-05T18:41:31.412Z,-3.46
2023-02-05T18:43:58.673Z,-3.44
2023-02-05T18:46:33.652Z,-3.44
2023-02-05T18:49:01.558Z,-3.42
2023-02-05T18:51:28.573Z,-3.42
2023-02-05T18:53:55.443Z,-3.45
2023-02-05T18:56:23.452Z,-3.46
2023-02-05T18:58:53.159Z,-3.46
2023-02-05T19:01:21.557Z,-3.52
2023-02-05T19:03:48.557Z,-3.52
2023-02-05T19:06:15.951Z,-3.50
2023-02-05T19:08:43.247Z,-3.46
2023-02-05T19:11:19.056Z,-3.39
2023-02-05T19:13:45.891Z,-3.38
2023-02-05T19:16:15.255Z,-3.38
2023-02-05T19:18:43.113Z,-3.41
2023-02-05T19:21:11.222Z,-3.49
2023-02-05T19:23:38.114Z,-3.50
2023-02-05T19:26:05.856Z,-3.52
2023-02-05T19:28:32.865Z,-3.52
2023-02-05T19:31:06.583Z,-3.49
2023-02-05T19:33:33.691Z,-3.51
2023-02-05T19:36:01.371Z,-3.49
2023-02-05T19:38:28.859Z,-3.46
2023-02-05T19:40:56.404Z,-3.44
2023-02-05T19:43:23.191Z,-3.40
2023-02-05T19:45:50.129Z,-3.41
2023-02-05T19:48:16.957Z,-3.41
2023-02-05T19:50:45.070Z,-3.39
2023-02-05T19:53:12.173Z,-3.36
2023-02-05T19:55:39.854Z,-3.34
2023-02-05T19:58:06.738Z,-3.43
2023-02-05T20:00:33.798Z,-3.53
2023-02-05T20:03:01.922Z,-3.56
2023-02-05T20:05:28.712Z,-3.59
2023-02-05T20:07:57.641Z,-3.59
2023-02-05T20:10:24.545Z,-3.60
2023-02-05T20:12:51.329Z,-3.60
2023-02-05T20:15:18.189Z,-3.61
2023-02-05T20:17:45.002Z,-3.61
2023-02-05T20:20:24.918Z,-3.61
2023-02-05T20:22:59.470Z,-3.64
2023-02-05T20:25:26.258Z,-3.68
2023-02-05T20:27:53.126Z,-3.67
2023-02-05T20:30:38.456Z,-3.68
2023-02-05T20:33:05.516Z,-3.69
2023-02-05T20:35:34.873Z,-3.68
2023-02-05T20:38:01.646Z,-3.70
2023-02-05T20:40:28.390Z,-3.67
2023-02-05T20:42:55.132Z,-3.68
2023-02-05T20:45:21.943Z,-3.71
2023-02-05T20:47:48.732Z,-3.76
2023-02-05T20:50:15.728Z,-3.80
2023-02-05T20:52:42.630Z,-3.84
2023-02-05T20:55:09.441Z,-3.82
2023-02-05T20:57:36.278Z,-3.79
2023-02-05T21:00:03.419Z,-3.77
2023-02-05T21:02:30.588Z,-3.76
2023-02-05T21:04:57.442Z,-3.80
2023-02-05T21:07:29.589Z,-3.79
2023-02-05T21:09:56.501Z,-3.77
2023-02-05T21:12:28.070Z,-3.76
2023-02-05T21:14:54.837Z,-3.77
2023-02-05T21:17:21.618Z,-3.82
2023-02-05T21:19:48.548Z,-3.87
2023-02-05T21:22:15.387Z,-3.95
2023-02-05T21:24:42.166Z,-4.00
2023-02-05T21:27:08.927Z,-3.99
2023-02-05T21:29:35.807Z,-3.97
2023-02-05T21:32:02.926Z,-3.93
2023-02-05T21:34:29.870Z,-3.96
2023-02-05T21:36:58.016Z,-3.96
2023-02-05T21:39:25.721Z,-4.01
2023-02-05T21:41:53.562Z,-4.01
2023-02-05T21:44:20.513Z,-4.04
2023-02-05T21:46:47.392Z,-4.09
2023-02-05T21:49:39.127Z,-4.15
2023-02-05T21:52:05.979Z,-4.12
2023-02-05T21:54:32.823Z,-4.12
2023-02-05T21:56:59.742Z,-4.19
2023-02-05T21:59:26.591Z,-4.20
2023-02-05T22:01:53.623Z,-4.23
2023-02-05T22:04:20.753Z,-4.23
2023-02-05T22:06:47.624Z,-4.24
2023-02-05T22:09:15.294Z,-4.21
2023-02-05T22:11:42.561Z,-4.24
2023-02-05T22:14:10.027Z,-4.29
2023-02-05T22:16:37.269Z,-4.31
2023-02-05T22:19:04.558Z,-4.26
2023-02-05T22:21:32.649Z,-4.26
2023-02-05T22:24:00.074Z,-4.28
2023-02-05T22:26:31.272Z,-4.28
2023-02-05T22:28:59.378Z,-4.25
2023-02-05T22:31:26.367Z,-4.27
2023-02-05T22:33:53.307Z,-4.28
2023-02-05T22:36:21.240Z,-4.29
2023-02-05T22:38:48.441Z,-4.33
2023-02-05T22:41:16.671Z,-4.37
2023-02-05T22:43:43.596Z,-4.43
2023-02-05T22:46:11.985Z,-4.40
2023-02-05T22:48:39.761Z,-4.39
2023-02-05T22:51:07.566Z,-4.42
2023-02-05T22:53:34.360Z,-4.44
2023-02-05T22:56:01.958Z,-4.51
2023-02-05T22:58:28.821Z,-4.55
2023-02-05T23:00:55.784Z,-4.51
2023-02-05T23:03:23.057Z,-4.48
2023-02-05T23:05:50.842Z,-4.50
2023-02-05T23:08:17.598Z,-4.53
2023-02-05T23:10:44.657Z,-4.55
2023-02-05T23:13:11.450Z,-4.58
2023-02-05T23:15:38.230Z,-4.58
2023-02-05T23:18:05.025Z,-4.61
2023-02-05T23:20:31.851Z,-4.56
2023-02-05T23:22:58.669Z,-4.58
2023-02-05T23:25:28.087Z,-4.62
2023-02-05T23:27:54.887Z,-4.59
2023-02-05T23:30:23.135Z,-4.58
2023-02-05T23:32:49.972Z,-4.67
2023-02-05T23:35:16.801Z,-4.73
2023-02-05T23:37:43.554Z,-4.79
2023-02-05T23:40:10.706Z,-4.84
2023-02-05T23:42:37.452Z,-4.83
2023-02-05T23:45:04.340Z,-4.87
2023-02-05T23:47:31.173Z,-4.91
2023-02-05T23:49:58.086Z,-4.88
2023-02-05T23:52:24.845Z,-4.83
2023-02-05T23:54:51.606Z,-4.83
2023-02-05T23:57:18.394Z,-4.80
2023-02-05T23:59:45.404Z,-4.82
